sensor_id;sensor_type;location;lat;lon;timestamp;pressure;altitude;pressure_sealevel;temperature;humidity
21742;BME280;11033;47.490;11.116;2023-04-10T00:02:16;93761.88;;;0.56;90.53
21742;BME280;11033;47.490;11.116;2023-04-10T00:04:41;93759.63;;;0.62;90.51
21742;BME280;11033;47.490;11.116;2023-04-10T00:07:07;93762.47;;;0.59;90.71
21742;BME280;11033;47.490;11.116;2023-04-10T00:09:32;93750.97;;;0.75;89.89
21742;BME280;11033;47.490;11.116;2023-04-10T00:11:58;93752.13;;;0.71;90.18
21742;BME280;11033;47.490;11.116;2023-04-10T00:14:23;93751.84;;;0.62;90.32
21742;BME280;11033;47.490;11.116;2023-04-10T00:16:49;93749.72;;;0.56;90.73
21742;BME280;11033;47.490;11.116;2023-04-10T00:19:15;93747.63;;;0.61;90.87
21742;BME280;11033;47.490;11.116;2023-04-10T00:21:41;93741.28;;;0.66;89.80
21742;BME280;11033;47.490;11.116;2023-04-10T00:24:07;93738.78;;;0.64;90.70
21742;BME280;11033;47.490;11.116;2023-04-10T00:26:33;93735.50;;;0.62;90.21
21742;BME280;11033;47.490;11.116;2023-04-10T00:28:59;93735.59;;;0.60;89.84
21742;BME280;11033;47.490;11.116;2023-04-10T00:31:24;93728.28;;;0.54;90.58
21742;BME280;11033;47.490;11.116;2023-04-10T00:33:49;93728.06;;;0.57;90.35
21742;BME280;11033;47.490;11.116;2023-04-10T00:36:16;93731.72;;;0.55;90.29
21742;BME280;11033;47.490;11.116;2023-04-10T00:38:42;93721.47;;;0.53;91.05
21742;BME280;11033;47.490;11.116;2023-04-10T00:41:07;93719.09;;;0.50;90.69
21742;BME280;11033;47.490;11.116;2023-04-10T00:43:32;93724.06;;;0.53;90.50
21742;BME280;11033;47.490;11.116;2023-04-10T00:45:57;93721.94;;;0.47;90.52
21742;BME280;11033;47.490;11.116;2023-04-10T00:48:23;93717.56;;;0.48;90.53
21742;BME280;11033;47.490;11.116;2023-04-10T00:50:49;93721.94;;;0.47;90.49
21742;BME280;11033;47.490;11.116;2023-04-10T00:53:14;93720.53;;;0.54;90.34
21742;BME280;11033;47.490;11.116;2023-04-10T00:55:39;93722.28;;;0.43;90.84
21742;BME280;11033;47.490;11.116;2023-04-10T00:58:05;93715.44;;;0.42;91.33
21742;BME280;11033;47.490;11.116;2023-04-10T01:00:31;93714.25;;;0.46;90.88
21742;BME280;11033;47.490;11.116;2023-04-10T01:02:56;93713.44;;;0.45;90.40
21742;BME280;11033;47.490;11.116;2023-04-10T01:05:22;93725.22;;;0.49;90.31
21742;BME280;11033;47.490;11.116;2023-04-10T01:08:04;93727.81;;;0.60;89.21
21742;BME280;11033;47.490;11.116;2023-04-10T01:10:41;93717.09;;;0.54;89.14
21742;BME280;11033;47.490;11.116;2023-04-10T01:15:50;93727.09;;;0.47;90.30
21742;BME280;11033;47.490;11.116;2023-04-10T01:18:23;93726.75;;;0.52;89.93
21742;BME280;11033;47.490;11.116;2023-04-10T01:20:50;93726.16;;;0.48;89.53
21742;BME280;11033;47.490;11.116;2023-04-10T01:26:05;93717.34;;;0.51;89.41
21742;BME280;11033;47.490;11.116;2023-04-10T01:31:10;93716.63;;;0.49;89.98
21742;BME280;11033;47.490;11.116;2023-04-10T01:33:42;93709.91;;;0.46;89.85
21742;BME280;11033;47.490;11.116;2023-04-10T01:36:12;93709.69;;;0.49;89.22
21742;BME280;11033;47.490;11.116;2023-04-10T01:38:42;93708.50;;;0.53;88.72
21742;BME280;11033;47.490;11.116;2023-04-10T01:41:08;93709.69;;;0.49;89.03
21742;BME280;11033;47.490;11.116;2023-04-10T01:43:34;93700.63;;;0.55;89.07
21742;BME280;11033;47.490;11.116;2023-04-10T01:46:02;93704.25;;;0.52;89.12
21742;BME280;11033;47.490;11.116;2023-04-10T01:48:28;93697.91;;;0.45;89.77
21742;BME280;11033;47.490;11.116;2023-04-10T01:50:54;93692.25;;;0.40;89.69
21742;BME280;11033;47.490;11.116;2023-04-10T01:53:20;93691.53;;;0.38;89.49
21742;BME280;11033;47.490;11.116;2023-04-10T01:55:47;93690.34;;;0.31;90.17
21742;BME280;11033;47.490;11.116;2023-04-10T01:58:14;93693.88;;;0.30;90.28
21742;BME280;11033;47.490;11.116;2023-04-10T02:00:40;93693.88;;;0.41;89.58
21742;BME280;11033;47.490;11.116;2023-04-10T02:03:07;93698.13;;;0.31;89.90
21742;BME280;11033;47.490;11.116;2023-04-10T02:05:48;93691.63;;;0.25;90.73
21742;BME280;11033;47.490;11.116;2023-04-10T02:08:23;93694.81;;;0.29;89.81
21742;BME280;11033;47.490;11.116;2023-04-10T02:10:59;93684.56;;;0.27;90.37
21742;BME280;11033;47.490;11.116;2023-04-10T02:13:27;93689.16;;;0.35;89.90
21742;BME280;11033;47.490;11.116;2023-04-10T02:15:55;93685.41;;;0.28;89.91
21742;BME280;11033;47.490;11.116;2023-04-10T02:18:24;93684.81;;;0.24;90.36
21742;BME280;11033;47.490;11.116;2023-04-10T02:20:51;93692.69;;;0.23;89.58
21742;BME280;11033;47.490;11.116;2023-04-10T02:23:18;93690.66;;;0.15;90.42
21742;BME280;11033;47.490;11.116;2023-04-10T02:25:44;93690.31;;;0.20;90.07
21742;BME280;11033;47.490;11.116;2023-04-10T02:28:10;93697.88;;;0.23;89.87
21742;BME280;11033;47.490;11.116;2023-04-10T02:30:35;93692.41;;;0.04;90.60
21742;BME280;11033;47.490;11.116;2023-04-10T02:33:00;93697.19;;;-0.03;91.40
21742;BME280;11033;47.490;11.116;2023-04-10T02:35:26;93684.81;;;-0.11;91.70
21742;BME280;11033;47.490;11.116;2023-04-10T02:37:53;93685.25;;;-0.17;92.22
21742;BME280;11033;47.490;11.116;2023-04-10T02:40:18;93689.13;;;-0.22;92.42
21742;BME280;11033;47.490;11.116;2023-04-10T02:42:43;93684.56;;;-0.19;91.90
21742;BME280;11033;47.490;11.116;2023-04-10T02:45:09;93686.75;;;-0.25;92.36
21742;BME280;11033;47.490;11.116;2023-04-10T02:47:34;93683.34;;;-0.26;92.17
21742;BME280;11033;47.490;11.116;2023-04-10T02:50:00;93689.34;;;-0.25;92.56
21742;BME280;11033;47.490;11.116;2023-04-10T02:52:25;93682.63;;;-0.28;93.44
21742;BME280;11033;47.490;11.116;2023-04-10T02:54:51;93683.69;;;-0.30;93.77
21742;BME280;11033;47.490;11.116;2023-04-10T02:57:16;93680.06;;;-0.28;93.96
21742;BME280;11033;47.490;11.116;2023-04-10T02:59:42;93677.25;;;-0.25;93.97
21742;BME280;11033;47.490;11.116;2023-04-10T03:02:07;93683.47;;;-0.27;93.78
21742;BME280;11033;47.490;11.116;2023-04-10T03:04:32;93680.75;;;-0.26;93.88
21742;BME280;11033;47.490;11.116;2023-04-10T03:06:58;93678.28;;;-0.27;93.77
21742;BME280;11033;47.490;11.116;2023-04-10T03:09:23;93670.88;;;-0.32;93.83
21742;BME280;11033;47.490;11.116;2023-04-10T03:11:48;93669.44;;;-0.36;93.80
21742;BME280;11033;47.490;11.116;2023-04-10T03:14:14;93673.66;;;-0.35;94.10
21742;BME280;11033;47.490;11.116;2023-04-10T03:16:39;93677.19;;;-0.36;94.16
21742;BME280;11033;47.490;11.116;2023-04-10T03:19:05;93675.78;;;-0.40;94.39
21742;BME280;11033;47.490;11.116;2023-04-10T03:21:30;93678.59;;;-0.43;94.52
21742;BME280;11033;47.490;11.116;2023-04-10T03:23:56;93668.22;;;-0.43;94.61
21742;BME280;11033;47.490;11.116;2023-04-10T03:26:21;93677.16;;;-0.47;94.86
21742;BME280;11033;47.490;11.116;2023-04-10T03:28:48;93670.34;;;-0.48;94.99
21742;BME280;11033;47.490;11.116;2023-04-10T03:31:13;93676.22;;;-0.46;94.67
21742;BME280;11033;47.490;11.116;2023-04-10T03:33:38;93676.22;;;-0.46;94.53
21742;BME280;11033;47.490;11.116;2023-04-10T03:36:04;93671.97;;;-0.47;94.13
21742;BME280;11033;47.490;11.116;2023-04-10T03:38:30;93672.09;;;-0.49;94.74
21742;BME280;11033;47.490;11.116;2023-04-10T03:40:55;93674.91;;;-0.52;94.23
21742;BME280;11033;47.490;11.116;2023-04-10T03:43:20;93677.38;;;-0.50;94.46
21742;BME280;11033;47.490;11.116;2023-04-10T03:45:45;93674.31;;;-0.55;94.19
21742;BME280;11033;47.490;11.116;2023-04-10T03:48:11;93675.94;;;-0.54;94.38
21742;BME280;11033;47.490;11.116;2023-04-10T03:50:36;93682.78;;;-0.53;94.49
21742;BME280;11033;47.490;11.116;2023-04-10T03:53:01;93681.94;;;-0.54;94.08
21742;BME280;11033;47.490;11.116;2023-04-10T03:55:27;93680.63;;;-0.59;94.64
21742;BME280;11033;47.490;11.116;2023-04-10T03:57:52;93678.25;;;-0.62;94.67
21742;BME280;11033;47.490;11.116;2023-04-10T04:00:19;93681.78;;;-0.63;94.60
21742;BME280;11033;47.490;11.116;2023-04-10T04:02:44;93676.81;;;-0.67;95.14
21742;BME280;11033;47.490;11.116;2023-04-10T04:05:10;93689.72;;;-0.67;95.35
21742;BME280;11033;47.490;11.116;2023-04-10T04:07:35;93669.97;;;-0.68;95.57
21742;BME280;11033;47.490;11.116;2023-04-10T04:10:00;93671.25;;;-0.73;95.06
21742;BME280;11033;47.490;11.116;2023-04-10T04:12:26;93670.31;;;-0.72;95.34
21742;BME280;11033;47.490;11.116;2023-04-10T04:14:51;93674.88;;;-0.76;95.59
21742;BME280;11033;47.490;11.116;2023-04-10T04:17:17;93672.06;;;-0.73;95.83
21742;BME280;11033;47.490;11.116;2023-04-10T04:19:42;93673.72;;;-0.72;95.48
21742;BME280;11033;47.490;11.116;2023-04-10T04:22:08;93676.63;;;-0.63;95.34
21742;BME280;11033;47.490;11.116;2023-04-10T04:24:33;93677.56;;;-0.65;94.77
21742;BME280;11033;47.490;11.116;2023-04-10T04:26:58;93676.41;;;-0.60;93.78
21742;BME280;11033;47.490;11.116;2023-04-10T04:29:24;93671.22;;;-0.60;93.36
21742;BME280;11033;47.490;11.116;2023-04-10T04:31:49;93689.50;;;-0.51;93.64
21742;BME280;11033;47.490;11.116;2023-04-10T04:34:14;93690.66;;;-0.55;93.51
21742;BME280;11033;47.490;11.116;2023-04-10T04:36:40;93689.81;;;-0.55;94.26
21742;BME280;11033;47.490;11.116;2023-04-10T04:39:06;93693.72;;;-0.50;94.16
21742;BME280;11033;47.490;11.116;2023-04-10T04:41:31;93693.84;;;-0.51;94.53
21742;BME280;11033;47.490;11.116;2023-04-10T04:43:58;93684.66;;;-0.55;94.93
21742;BME280;11033;47.490;11.116;2023-04-10T04:46:23;93689.59;;;-0.52;94.24
21742;BME280;11033;47.490;11.116;2023-04-10T04:48:48;93689.59;;;-0.52;95.08
21742;BME280;11033;47.490;11.116;2023-04-10T04:51:14;93690.44;;;-0.52;94.84
21742;BME280;11033;47.490;11.116;2023-04-10T04:53:40;93695.97;;;-0.45;94.96
21742;BME280;11033;47.490;11.116;2023-04-10T04:56:05;93692.13;;;-0.40;93.82
21742;BME280;11033;47.490;11.116;2023-04-10T04:58:30;93695.75;;;-0.42;94.26
21742;BME280;11033;47.490;11.116;2023-04-10T05:00:56;93700.72;;;-0.39;93.88
21742;BME280;11033;47.490;11.116;2023-04-10T05:03:21;93695.31;;;-0.36;93.78
21742;BME280;11033;47.490;11.116;2023-04-10T05:05:46;93707.09;;;-0.32;93.25
21742;BME280;11033;47.490;11.116;2023-04-10T05:08:12;93698.16;;;-0.28;93.15
21742;BME280;11033;47.490;11.116;2023-04-10T05:10:37;93703.94;;;-0.24;92.62
21742;BME280;11033;47.490;11.116;2023-04-10T05:13:02;93701.25;;;-0.23;92.37
21742;BME280;11033;47.490;11.116;2023-04-10T05:15:27;93696.78;;;-0.21;92.40
21742;BME280;11033;47.490;11.116;2023-04-10T05:17:53;93695.13;;;-0.22;92.54
21742;BME280;11033;47.490;11.116;2023-04-10T05:20:18;93692.91;;;-0.15;92.35
21742;BME280;11033;47.490;11.116;2023-04-10T05:22:45;93702.22;;;-0.13;91.87
21742;BME280;11033;47.490;11.116;2023-04-10T05:25:11;93703.88;;;-0.12;92.11
21742;BME280;11033;47.490;11.116;2023-04-10T05:27:36;93703.47;;;0.06;91.52
21742;BME280;11033;47.490;11.116;2023-04-10T05:30:01;93697.81;;;0.01;91.75
21742;BME280;11033;47.490;11.116;2023-04-10T05:32:28;93698.78;;;0.11;91.23
21742;BME280;11033;47.490;11.116;2023-04-10T05:34:53;93698.31;;;0.17;91.08
21742;BME280;11033;47.490;11.116;2023-04-10T05:37:18;93699.75;;;0.21;91.05
21742;BME280;11033;47.490;11.116;2023-04-10T05:39:44;93699.53;;;0.35;89.93
21742;BME280;11033;47.490;11.116;2023-04-10T05:42:09;93700.59;;;0.32;89.89
21742;BME280;11033;47.490;11.116;2023-04-10T05:44:34;93698.84;;;0.44;89.67
21742;BME280;11033;47.490;11.116;2023-04-10T05:46:59;93705.44;;;0.59;88.95
21742;BME280;11033;47.490;11.116;2023-04-10T05:49:25;93703.31;;;0.64;88.47
21742;BME280;11033;47.490;11.116;2023-04-10T05:51:50;93706.41;;;0.70;88.87
21742;BME280;11033;47.490;11.116;2023-04-10T05:54:16;93708.78;;;0.84;87.55
21742;BME280;11033;47.490;11.116;2023-04-10T05:56:42;93708.06;;;0.93;86.38
21742;BME280;11033;47.490;11.116;2023-04-10T05:59:07;93706.75;;;0.99;85.68
21742;BME280;11033;47.490;11.116;2023-04-10T06:01:32;93707.81;;;0.96;86.71
21742;BME280;11033;47.490;11.116;2023-04-10T06:03:58;93718.19;;;0.96;86.77
21742;BME280;11033;47.490;11.116;2023-04-10T06:06:24;93716.66;;;1.05;86.69
21742;BME280;11033;47.490;11.116;2023-04-10T06:08:50;93720.78;;;1.07;86.72
21742;BME280;11033;47.490;11.116;2023-04-10T06:11:16;93718.06;;;1.09;87.21
21742;BME280;11033;47.490;11.116;2023-04-10T06:13:41;93713.00;;;1.18;86.96
21742;BME280;11033;47.490;11.116;2023-04-10T06:16:07;93718.66;;;1.12;87.34
21742;BME280;11033;47.490;11.116;2023-04-10T06:18:32;93709.94;;;1.13;87.89
21742;BME280;11033;47.490;11.116;2023-04-10T06:20:58;93708.25;;;1.23;87.55
21742;BME280;11033;47.490;11.116;2023-04-10T06:23:29;93707.09;;;1.27;87.69
21742;BME280;11033;47.490;11.116;2023-04-10T06:25:54;93703.78;;;1.37;87.00
21742;BME280;11033;47.490;11.116;2023-04-10T06:28:20;93704.25;;;1.42;87.00
21742;BME280;11033;47.490;11.116;2023-04-10T06:30:45;93702.56;;;1.52;86.26
21742;BME280;11033;47.490;11.116;2023-04-10T06:33:10;93697.47;;;1.62;85.61
21742;BME280;11033;47.490;11.116;2023-04-10T06:35:36;93687.03;;;1.73;85.26
21742;BME280;11033;47.490;11.116;2023-04-10T06:38:02;93684.53;;;1.82;85.00
21742;BME280;11033;47.490;11.116;2023-04-10T06:40:27;93682.75;;;1.83;84.77
21742;BME280;11033;47.490;11.116;2023-04-10T06:42:53;93684.25;;;1.97;85.17
21742;BME280;11033;47.490;11.116;2023-04-10T06:45:19;93674.63;;;2.08;83.98
21742;BME280;11033;47.490;11.116;2023-04-10T06:47:45;93670.25;;;2.30;82.95
21742;BME280;11033;47.490;11.116;2023-04-10T06:50:10;93665.94;;;2.40;82.53
21742;BME280;11033;47.490;11.116;2023-04-10T06:52:36;93663.06;;;2.43;83.14
21742;BME280;11033;47.490;11.116;2023-04-10T06:55:01;93649.88;;;2.55;82.35
21742;BME280;11033;47.490;11.116;2023-04-10T06:57:26;93651.19;;;2.71;81.10
21742;BME280;11033;47.490;11.116;2023-04-10T06:59:52;93645.38;;;2.88;80.58
21742;BME280;11033;47.490;11.116;2023-04-10T07:02:18;93647.28;;;2.86;80.11
21742;BME280;11033;47.490;11.116;2023-04-10T07:04:43;93646.91;;;3.00;80.22
21742;BME280;11033;47.490;11.116;2023-04-10T07:07:08;93643.94;;;3.14;79.25
21742;BME280;11033;47.490;11.116;2023-04-10T07:09:36;93643.75;;;3.37;77.91
21742;BME280;11033;47.490;11.116;2023-04-10T07:12:02;93636.75;;;3.47;77.57
21742;BME280;11033;47.490;11.116;2023-04-10T07:14:27;93642.25;;;3.63;76.56
21742;BME280;11033;47.490;11.116;2023-04-10T07:16:53;93644.31;;;3.69;75.81
21742;BME280;11033;47.490;11.116;2023-04-10T07:19:18;93648.19;;;3.94;74.22
21742;BME280;11033;47.490;11.116;2023-04-10T07:21:44;93637.75;;;4.04;73.53
21742;BME280;11033;47.490;11.116;2023-04-10T07:24:14;93643.09;;;4.12;72.98
21742;BME280;11033;47.490;11.116;2023-04-10T07:26:39;93640.06;;;4.17;71.95
21742;BME280;11033;47.490;11.116;2023-04-10T07:29:04;93643.06;;;4.31;71.00
21742;BME280;11033;47.490;11.116;2023-04-10T07:31:29;93637.84;;;4.31;71.33
21742;BME280;11033;47.490;11.116;2023-04-10T07:33:55;93631.78;;;4.40;69.82
21742;BME280;11033;47.490;11.116;2023-04-10T07:36:20;93632.88;;;4.47;69.41
21742;BME280;11033;47.490;11.116;2023-04-10T07:38:45;93627.94;;;4.44;69.84
21742;BME280;11033;47.490;11.116;2023-04-10T07:41:11;93635.06;;;4.62;69.61
21742;BME280;11033;47.490;11.116;2023-04-10T07:43:36;93625.69;;;4.69;69.00
21742;BME280;11033;47.490;11.116;2023-04-10T07:46:01;93627.53;;;4.86;67.76
21742;BME280;11033;47.490;11.116;2023-04-10T07:48:26;93626.00;;;4.93;68.22
21742;BME280;11033;47.490;11.116;2023-04-10T07:50:52;93626.09;;;5.01;68.43
21742;BME280;11033;47.490;11.116;2023-04-10T07:53:17;93624.16;;;5.03;67.46
21742;BME280;11033;47.490;11.116;2023-04-10T07:55:44;93615.16;;;5.16;66.53
21742;BME280;11033;47.490;11.116;2023-04-10T07:58:09;93625.97;;;5.30;66.04
21742;BME280;11033;47.490;11.116;2023-04-10T08:00:35;93612.47;;;5.35;65.85
21742;BME280;11033;47.490;11.116;2023-04-10T08:03:01;93613.00;;;5.38;66.16
21742;BME280;11033;47.490;11.116;2023-04-10T08:05:26;93615.94;;;5.53;65.07
21742;BME280;11033;47.490;11.116;2023-04-10T08:07:52;93612.50;;;5.70;63.72
21742;BME280;11033;47.490;11.116;2023-04-10T08:10:17;93608.91;;;5.71;63.84
21742;BME280;11033;47.490;11.116;2023-04-10T08:12:42;93605.22;;;5.92;62.87
21742;BME280;11033;47.490;11.116;2023-04-10T08:15:08;93599.69;;;5.95;64.06
21742;BME280;11033;47.490;11.116;2023-04-10T08:17:33;93600.75;;;6.02;62.50
21742;BME280;11033;47.490;11.116;2023-04-10T08:19:59;93594.91;;;6.08;63.00
21742;BME280;11033;47.490;11.116;2023-04-10T08:22:24;93594.75;;;6.10;63.46
21742;BME280;11033;47.490;11.116;2023-04-10T08:24:49;93592.66;;;6.13;63.77
21742;BME280;11033;47.490;11.116;2023-04-10T08:27:15;93598.50;;;6.33;61.04
21742;BME280;11033;47.490;11.116;2023-04-10T08:29:41;93591.84;;;6.39;60.55
21742;BME280;11033;47.490;11.116;2023-04-10T08:32:07;93587.78;;;6.44;61.49
21742;BME280;11033;47.490;11.116;2023-04-10T08:34:32;93581.81;;;6.52;60.14
21742;BME280;11033;47.490;11.116;2023-04-10T08:36:58;93587.25;;;6.58;59.45
21742;BME280;11033;47.490;11.116;2023-04-10T08:39:23;93586.59;;;6.90;60.31
21742;BME280;11033;47.490;11.116;2023-04-10T08:41:48;93580.22;;;6.93;60.16
21742;BME280;11033;47.490;11.116;2023-04-10T08:44:14;93583.72;;;7.10;59.10
21742;BME280;11033;47.490;11.116;2023-04-10T08:46:43;93582.16;;;7.25;59.50
21742;BME280;11033;47.490;11.116;2023-04-10T08:52:14;93573.75;;;7.72;53.15
21742;BME280;11033;47.490;11.116;2023-04-10T08:54:46;93571.31;;;7.86;53.85
21742;BME280;11033;47.490;11.116;2023-04-10T08:57:14;93566.25;;;7.85;55.67
21742;BME280;11033;47.490;11.116;2023-04-10T08:59:49;93564.91;;;8.21;52.08
21742;BME280;11033;47.490;11.116;2023-04-10T09:02:15;93555.06;;;8.23;53.26
21742;BME280;11033;47.490;11.116;2023-04-10T09:04:47;93559.38;;;8.49;52.64
21742;BME280;11033;47.490;11.116;2023-04-10T09:07:13;93560.97;;;8.66;49.75
21742;BME280;11033;47.490;11.116;2023-04-10T09:09:39;93557.00;;;8.70;51.28
21742;BME280;11033;47.490;11.116;2023-04-10T09:12:04;93557.59;;;8.88;50.92
21742;BME280;11033;47.490;11.116;2023-04-10T09:14:32;93553.94;;;9.06;49.06
21742;BME280;11033;47.490;11.116;2023-04-10T09:17:16;93545.38;;;9.12;50.04
21742;BME280;11033;47.490;11.116;2023-04-10T09:19:47;93554.53;;;9.24;50.49
21742;BME280;11033;47.490;11.116;2023-04-10T09:22:14;93551.81;;;9.40;53.72
21742;BME280;11033;47.490;11.116;2023-04-10T09:24:44;93544.19;;;9.53;50.88
21742;BME280;11033;47.490;11.116;2023-04-10T09:27:10;93541.41;;;9.78;49.60
21742;BME280;11033;47.490;11.116;2023-04-10T09:29:51;93530.75;;;9.94;48.23
21742;BME280;11033;47.490;11.116;2023-04-10T09:35:00;93531.22;;;10.21;48.28
21742;BME280;11033;47.490;11.116;2023-04-10T09:37:34;93522.13;;;10.46;45.64
21742;BME280;11033;47.490;11.116;2023-04-10T09:40:01;93523.41;;;10.65;47.10
21742;BME280;11033;47.490;11.116;2023-04-10T09:42:30;93522.50;;;10.87;46.14
21742;BME280;11033;47.490;11.116;2023-04-10T09:44:57;93520.88;;;11.01;44.69
21742;BME280;11033;47.490;11.116;2023-04-10T09:47:22;93508.81;;;11.06;42.96
21742;BME280;11033;47.490;11.116;2023-04-10T09:49:55;93514.56;;;11.31;43.26
21742;BME280;11033;47.490;11.116;2023-04-10T09:52:25;93505.81;;;11.46;43.68
21742;BME280;11033;47.490;11.116;2023-04-10T09:54:55;93505.50;;;11.91;42.40
21742;BME280;11033;47.490;11.116;2023-04-10T09:57:22;93498.41;;;11.92;42.90
21742;BME280;11033;47.490;11.116;2023-04-10T09:59:50;93496.19;;;12.17;41.88
21742;BME280;11033;47.490;11.116;2023-04-10T10:02:16;93495.66;;;12.28;41.71
21742;BME280;11033;47.490;11.116;2023-04-10T10:04:43;93490.56;;;12.48;41.97
21742;BME280;11033;47.490;11.116;2023-04-10T10:07:09;93497.47;;;12.83;40.46
21742;BME280;11033;47.490;11.116;2023-04-10T10:09:35;93481.50;;;12.98;39.63
21742;BME280;11033;47.490;11.116;2023-04-10T10:12:02;93478.41;;;13.22;40.28
21742;BME280;11033;47.490;11.116;2023-04-10T10:14:29;93478.41;;;13.29;40.47
21742;BME280;11033;47.490;11.116;2023-04-10T10:16:58;93470.69;;;13.27;39.70
21742;BME280;11033;47.490;11.116;2023-04-10T10:19:41;93470.56;;;13.55;39.48
21742;BME280;11033;47.490;11.116;2023-04-10T10:22:10;93464.06;;;13.10;36.18
21742;BME280;11033;47.490;11.116;2023-04-10T10:24:37;93463.66;;;13.07;34.59
21742;BME280;11033;47.490;11.116;2023-04-10T10:27:05;93455.47;;;13.43;37.38
21742;BME280;11033;47.490;11.116;2023-04-10T10:29:35;93449.13;;;13.30;35.28
21742;BME280;11033;47.490;11.116;2023-04-10T10:32:02;93452.84;;;13.49;36.48
21742;BME280;11033;47.490;11.116;2023-04-10T10:34:28;93444.09;;;13.62;37.08
21742;BME280;11033;47.490;11.116;2023-04-10T10:36:53;93447.63;;;14.09;38.85
21742;BME280;11033;47.490;11.116;2023-04-10T10:39:29;93441.94;;;14.25;36.77
21742;BME280;11033;47.490;11.116;2023-04-10T10:42:15;93430.72;;;14.23;35.93
21742;BME280;11033;47.490;11.116;2023-04-10T10:44:58;93426.00;;;14.78;37.79
21742;BME280;11033;47.490;11.116;2023-04-10T10:47:29;93421.91;;;14.82;33.71
21742;BME280;11033;47.490;11.116;2023-04-10T10:50:00;93426.84;;;14.58;32.98
21742;BME280;11033;47.490;11.116;2023-04-10T10:52:36;93422.72;;;14.76;36.00
21742;BME280;11033;47.490;11.116;2023-04-10T10:57:47;93405.38;;;15.31;32.29
21742;BME280;11033;47.490;11.116;2023-04-10T11:00:14;93406.69;;;15.92;36.43
21742;BME280;11033;47.490;11.116;2023-04-10T11:02:39;93402.81;;;15.63;33.29
21742;BME280;11033;47.490;11.116;2023-04-10T11:05:05;93393.72;;;15.77;31.18
21742;BME280;11033;47.490;11.116;2023-04-10T11:13:23;93387.97;;;16.55;32.91
21742;BME280;11033;47.490;11.116;2023-04-10T11:15:50;93380.66;;;16.50;33.39
21742;BME280;11033;47.490;11.116;2023-04-10T11:18:16;93368.47;;;16.61;32.78
21742;BME280;11033;47.490;11.116;2023-04-10T11:21:08;93372.06;;;16.30;31.62
21742;BME280;11033;47.490;11.116;2023-04-10T11:23:37;93368.03;;;16.64;30.99
21742;BME280;11033;47.490;11.116;2023-04-10T11:26:03;93368.59;;;16.47;31.55
21742;BME280;11033;47.490;11.116;2023-04-10T11:33:39;93357.47;;;17.42;31.14
21742;BME280;11033;47.490;11.116;2023-04-10T11:36:05;93350.09;;;17.74;32.09
21742;BME280;11033;47.490;11.116;2023-04-10T11:38:31;93341.16;;;18.33;34.38
21742;BME280;11033;47.490;11.116;2023-04-10T11:41:01;93334.41;;;18.43;30.95
21742;BME280;11033;47.490;11.116;2023-04-10T11:43:28;93336.25;;;18.54;29.95
21742;BME280;11033;47.490;11.116;2023-04-10T11:46:04;93331.03;;;18.71;29.69
21742;BME280;11033;47.490;11.116;2023-04-10T11:48:30;93334.06;;;18.39;27.88
21742;BME280;11033;47.490;11.116;2023-04-10T11:50:55;93326.53;;;18.71;29.55
21742;BME280;11033;47.490;11.116;2023-04-10T11:53:21;93319.19;;;19.47;28.89
21742;BME280;11033;47.490;11.116;2023-04-10T11:55:47;93321.97;;;21.25;28.78
21742;BME280;11033;47.490;11.116;2023-04-10T11:58:27;93320.03;;;27.84;23.61
21742;BME280;11033;47.490;11.116;2023-04-10T12:01:03;93322.00;;;29.74;18.48
21742;BME280;11033;47.490;11.116;2023-04-10T12:03:38;93321.31;;;35.35;20.30
21742;BME280;11033;47.490;11.116;2023-04-10T12:06:09;93312.94;;;37.21;15.90
21742;BME280;11033;47.490;11.116;2023-04-10T12:08:39;93304.03;;;37.40;16.35
21742;BME280;11033;47.490;11.116;2023-04-10T12:11:06;93302.06;;;35.92;15.21
21742;BME280;11033;47.490;11.116;2023-04-10T12:13:32;93299.72;;;38.72;14.21
21742;BME280;11033;47.490;11.116;2023-04-10T12:16:02;93302.75;;;39.25;14.52
21742;BME280;11033;47.490;11.116;2023-04-10T12:18:28;93295.38;;;38.71;14.90
21742;BME280;11033;47.490;11.116;2023-04-10T12:20:55;93295.03;;;40.52;13.41
21742;BME280;11033;47.490;11.116;2023-04-10T12:23:26;93298.63;;;40.03;13.53
21742;BME280;11033;47.490;11.116;2023-04-10T12:25:52;93287.72;;;39.87;13.81
21742;BME280;11033;47.490;11.116;2023-04-10T12:28:19;93290.91;;;40.69;12.10
21742;BME280;11033;47.490;11.116;2023-04-10T12:30:49;93282.66;;;40.42;15.04
21742;BME280;11033;47.490;11.116;2023-04-10T12:33:21;93285.13;;;42.40;15.19
21742;BME280;11033;47.490;11.116;2023-04-10T12:35:46;93279.91;;;41.02;13.93
21742;BME280;11033;47.490;11.116;2023-04-10T12:38:12;93285.94;;;42.44;13.82
21742;BME280;11033;47.490;11.116;2023-04-10T12:40:37;93287.84;;;42.33;12.33
21742;BME280;11033;47.490;11.116;2023-04-10T12:43:04;93289.56;;;42.52;12.02
21742;BME280;11033;47.490;11.116;2023-04-10T12:45:45;93291.38;;;37.83;12.73
21742;BME280;11033;47.490;11.116;2023-04-10T12:48:10;93301.31;;;38.92;14.83
21742;BME280;11033;47.490;11.116;2023-04-10T12:50:45;93299.78;;;37.27;14.10
21742;BME280;11033;47.490;11.116;2023-04-10T12:53:14;93328.25;;;41.53;14.20
21742;BME280;11033;47.490;11.116;2023-04-10T12:55:40;93340.75;;;42.68;13.60
21742;BME280;11033;47.490;11.116;2023-04-10T12:58:16;93335.69;;;42.85;14.38
21742;BME280;11033;47.490;11.116;2023-04-10T13:00:42;93313.75;;;40.96;13.70
21742;BME280;11033;47.490;11.116;2023-04-10T13:03:07;93315.97;;;40.53;12.64
21742;BME280;11033;47.490;11.116;2023-04-10T13:05:32;93306.38;;;39.29;13.41
21742;BME280;11033;47.490;11.116;2023-04-10T13:07:58;93320.56;;;41.02;13.27
21742;BME280;11033;47.490;11.116;2023-04-10T13:10:23;93329.31;;;43.71;12.81
21742;BME280;11033;47.490;11.116;2023-04-10T13:12:48;93317.59;;;42.43;12.96
21742;BME280;11033;47.490;11.116;2023-04-10T13:15:13;93319.41;;;43.84;12.54
21742;BME280;11033;47.490;11.116;2023-04-10T13:17:40;93314.66;;;44.17;11.67
21742;BME280;11033;47.490;11.116;2023-04-10T13:20:07;93297.97;;;42.66;12.84
21742;BME280;11033;47.490;11.116;2023-04-10T13:22:33;93286.28;;;43.01;11.97